Time;durP1;ratioP1;P1;durP2;ratioP2;P2;SDS_P1;SDS_P2;PMS_P1;PMS_P2;Temp;Humidity;BMP_temperature;BMP_pressure;BME280_temperature;BME280_humidity;BME280_pressure;Samples;Min_cycle;Max_cycle;Signal;HPM_P1;HPM_P2
2023/08/26 00:00:28;;;;;;;9.00;8.70;;;20.40;99.90;;;;;;5049820;28;20243;-80
2023/08/26 00:02:55;;;;;;;9.00;8.70;;;20.30;99.90;;;;;;5040798;28;20227;-80
2023/08/26 00:05:24;;;;;;;9.10;8.80;;;20.30;99.90;;;;;;5041089;28;20326;-80
2023/08/26 00:07:55;;;;;;;9.00;8.70;;;20.30;99.90;;;;;;5050852;28;20263;-81
2023/08/26 00:10:23;;;;;;;8.95;8.65;;;20.30;99.90;;;;;;5040342;28;20235;-80
2023/08/26 00:12:50;;;;;;;9.07;8.77;;;20.30;99.90;;;;;;5041302;28;20230;-80
2023/08/26 00:15:18;;;;;;;9.00;8.70;;;20.30;99.90;;;;;;5041269;28;20243;-80
2023/08/26 00:17:46;;;;;;;8.95;8.65;;;20.20;99.90;;;;;;5039338;28;20283;-80
2023/08/26 00:20:14;;;;;;;8.85;8.55;;;20.20;99.90;;;;;;5040250;28;20236;-80
2023/08/26 00:22:42;;;;;;;8.93;8.63;;;20.10;99.90;;;;;;5043059;28;20251;-80
2023/08/26 00:25:22;;;;;;;9.20;8.90;;;20.10;99.90;;;;;;5046998;28;20231;-80
2023/08/26 00:27:51;;;;;;;9.10;8.80;;;20.10;99.90;;;;;;5047503;28;20290;-80
2023/08/26 00:30:21;;;;;;;9.07;8.77;;;20.10;99.90;;;;;;5042897;28;20234;-80
2023/08/26 00:32:51;;;;;;;8.75;8.45;;;20.10;99.90;;;;;;5041274;28;20283;-81
2023/08/26 00:35:19;;;;;;;8.80;8.50;;;20.10;99.90;;;;;;5041376;28;20231;-80
2023/08/26 00:37:51;;;;;;;8.73;8.43;;;20.20;99.90;;;;;;5043049;28;20242;-81
2023/08/26 00:40:18;;;;;;;8.80;8.50;;;20.10;99.90;;;;;;5042693;28;20227;-80
2023/08/26 00:42:47;;;;;;;8.90;8.60;;;20.20;99.90;;;;;;5042678;28;20245;-81
2023/08/26 00:45:27;;;;;;;9.00;8.70;;;20.20;99.90;;;;;;5041000;28;20328;-80
2023/08/26 00:47:56;;;;;;;9.18;8.88;;;20.20;99.90;;;;;;5040487;28;20243;-81
2023/08/26 00:50:24;;;;;;;9.05;8.75;;;20.30;99.90;;;;;;5040658;28;20243;-80
2023/08/26 00:52:52;;;;;;;8.90;8.60;;;20.30;99.90;;;;;;5040077;28;20238;-81
2023/08/26 00:55:21;;;;;;;9.07;8.77;;;20.30;99.90;;;;;;5040727;28;20252;-80
2023/08/26 00:57:49;;;;;;;9.18;8.88;;;20.30;99.90;;;;;;5040222;28;20238;-80
2023/08/26 01:00:17;;;;;;;9.10;8.80;;;20.30;99.90;;;;;;5041524;28;20255;-80
2023/08/26 01:02:44;;;;;;;9.00;8.70;;;20.30;99.90;;;;;;5041708;28;20228;-81
2023/08/26 01:05:15;;;;;;;9.02;8.73;;;20.30;99.90;;;;;;5041946;28;20231;-81
2023/08/26 01:07:42;;;;;;;9.05;8.75;;;20.40;99.90;;;;;;5042046;28;20238;-81
2023/08/26 01:10:10;;;;;;;9.10;8.80;;;20.40;99.90;;;;;;5042066;28;20236;-81
2023/08/26 01:15:30;;;;;;;9.00;8.70;;;20.30;99.90;;;;;;5056807;28;20208;-82
2023/08/26 01:17:59;;;;;;;9.05;8.75;;;20.40;99.90;;;;;;5056286;28;20246;-81
2023/08/26 01:20:29;;;;;;;9.10;8.80;;;20.40;99.90;;;;;;5055260;28;20242;-81
2023/08/26 01:22:58;;;;;;;9.00;8.70;;;20.50;99.90;;;;;;5055997;28;20239;-81
2023/08/26 01:25:28;;;;;;;9.20;8.90;;;20.50;99.90;;;;;;5054866;28;20287;-80
2023/08/26 01:27:56;;;;;;;9.00;8.70;;;20.40;99.90;;;;;;5055165;28;20299;-81
2023/08/26 01:30:26;;;;;;;9.00;8.70;;;20.40;99.90;;;;;;5053772;28;20227;-80
2023/08/26 01:33:04;;;;;;;9.00;8.70;;;20.50;99.90;;;;;;5052127;28;20238;-81
2023/08/26 01:35:41;;;;;;;8.82;8.52;;;20.40;99.90;;;;;;5054813;28;20315;-81
2023/08/26 01:38:09;;;;;;;8.75;8.45;;;20.40;99.90;;;;;;5054677;28;20231;-81
2023/08/26 01:40:47;;;;;;;8.90;8.60;;;20.40;99.90;;;;;;5051919;28;20334;-81
2023/08/26 01:43:15;;;;;;;8.90;8.60;;;20.40;99.90;;;;;;5041095;28;20237;-81
2023/08/26 01:48:23;;;;;;;8.93;8.63;;;20.30;99.90;;;;;;5040970;28;20227;-81
2023/08/26 01:50:50;;;;;;;9.00;8.70;;;20.30;99.90;;;;;;5041475;28;20235;-81
2023/08/26 01:53:17;;;;;;;9.20;8.90;;;20.30;99.90;;;;;;5040824;28;20287;-81
2023/08/26 01:55:50;;;;;;;9.18;8.88;;;20.30;99.90;;;;;;5041384;28;20231;-80
2023/08/26 01:58:17;;;;;;;8.98;8.68;;;20.20;99.90;;;;;;5040476;28;20239;-81
2023/08/26 02:00:46;;;;;;;9.00;8.70;;;20.10;99.90;;;;;;5040608;28;20228;-81
2023/08/26 02:03:14;;;;;;;9.02;8.73;;;20.00;99.90;;;;;;5040396;28;20235;-81
2023/08/26 02:05:45;;;;;;;9.20;8.90;;;20.00;99.90;;;;;;5040506;28;20231;-81
2023/08/26 02:08:12;;;;;;;9.40;9.10;;;20.00;99.90;;;;;;5041245;28;20242;-80
2023/08/26 02:10:41;;;;;;;9.20;8.90;;;20.00;99.90;;;;;;5042658;28;20243;-80
2023/08/26 02:13:13;;;;;;;9.40;9.10;;;20.00;99.90;;;;;;5047451;28;20300;-81
2023/08/26 02:15:44;;;;;;;9.27;8.98;;;20.00;99.90;;;;;;5041032;28;20241;-81
2023/08/26 02:18:12;;;;;;;9.40;9.10;;;20.00;99.90;;;;;;5039671;28;20242;-81
2023/08/26 02:20:42;;;;;;;9.38;9.07;;;20.00;99.90;;;;;;5039080;28;20242;-80
2023/08/26 02:23:10;;;;;;;9.45;9.15;;;19.90;99.90;;;;;;5039543;28;20246;-80
2023/08/26 02:25:38;;;;;;;9.32;9.02;;;19.80;99.90;;;;;;5043064;28;21035;-81
2023/08/26 02:28:07;;;;;;;9.27;8.98;;;19.80;99.90;;;;;;5044273;28;20231;-81
2023/08/26 02:30:40;;;;;;;9.30;9.00;;;19.90;99.90;;;;;;5046788;28;20227;-81
2023/08/26 02:33:08;;;;;;;9.00;8.70;;;19.90;99.90;;;;;;5043389;28;20219;-81
2023/08/26 02:35:37;;;;;;;9.25;8.95;;;19.90;99.90;;;;;;5043069;28;20227;-80
2023/08/26 02:38:06;;;;;;;9.27;8.98;;;19.80;99.90;;;;;;5033677;28;20287;-80
2023/08/26 02:40:35;;;;;;;9.20;8.90;;;19.80;99.90;;;;;;5043350;28;20242;-80
2023/08/26 02:45:45;;;;;;;9.13;8.82;;;19.80;99.90;;;;;;5045692;28;20292;-81
2023/08/26 02:48:13;;;;;;;9.15;8.85;;;19.80;99.90;;;;;;5054655;28;20283;-82
2023/08/26 02:50:42;;;;;;;9.20;8.90;;;19.70;99.90;;;;;;5061939;28;20215;-81
2023/08/26 02:53:09;;;;;;;9.15;8.85;;;19.70;99.90;;;;;;5062010;28;20231;-81
2023/08/26 02:55:36;;;;;;;9.10;8.80;;;19.70;99.90;;;;;;5062259;28;20227;-82
2023/08/26 02:58:04;;;;;;;9.10;8.80;;;19.60;99.90;;;;;;5058644;28;20298;-82
2023/08/26 03:00:33;;;;;;;9.00;8.70;;;19.60;99.90;;;;;;5045555;28;20233;-81
2023/08/26 03:03:01;;;;;;;9.00;8.70;;;19.60;99.90;;;;;;5044485;28;20302;-81
2023/08/26 03:05:28;;;;;;;9.00;8.70;;;19.60;99.90;;;;;;5044676;28;20242;-81
2023/08/26 03:07:55;;;;;;;9.05;8.75;;;19.60;99.90;;;;;;5044634;28;20239;-81
2023/08/26 03:10:22;;;;;;;9.15;8.85;;;19.60;99.90;;;;;;5045667;28;20299;-81
2023/08/26 03:12:49;;;;;;;9.20;8.90;;;19.60;99.90;;;;;;5044381;28;20231;-81
2023/08/26 03:15:17;;;;;;;9.20;8.90;;;19.60;99.90;;;;;;5045574;28;20232;-81
2023/08/26 03:17:45;;;;;;;9.05;8.75;;;19.60;99.90;;;;;;5042632;28;20227;-81
2023/08/26 03:20:14;;;;;;;9.02;8.73;;;19.60;99.90;;;;;;5041211;28;20239;-81
2023/08/26 03:22:41;;;;;;;9.05;8.75;;;19.60;99.90;;;;;;5042145;28;20258;-81
2023/08/26 03:25:09;;;;;;;9.13;8.82;;;19.60;99.90;;;;;;5042783;28;20238;-82
2023/08/26 03:27:36;;;;;;;9.20;8.90;;;19.60;99.90;;;;;;5043625;28;20219;-82
2023/08/26 03:30:04;;;;;;;9.20;8.90;;;19.60;99.90;;;;;;5043454;28;20239;-81
2023/08/26 03:32:31;;;;;;;9.30;9.00;;;19.60;99.90;;;;;;5043407;28;20229;-81
2023/08/26 03:34:58;;;;;;;9.30;9.00;;;19.60;99.90;;;;;;5042570;28;20243;-81
2023/08/26 03:37:27;;;;;;;9.25;8.95;;;19.60;99.90;;;;;;5042978;28;20287;-81
2023/08/26 03:39:54;;;;;;;9.20;8.90;;;19.60;99.90;;;;;;5043560;28;20298;-81
2023/08/26 03:42:21;;;;;;;9.50;9.20;;;19.60;99.90;;;;;;5043194;28;20239;-80
2023/08/26 03:44:48;;;;;;;9.30;9.00;;;19.60;99.90;;;;;;5043372;28;20716;-81
2023/08/26 03:47:15;;;;;;;9.43;9.13;;;19.60;99.90;;;;;;5044474;28;21108;-81
2023/08/26 03:49:42;;;;;;;9.40;9.10;;;19.60;99.90;;;;;;5043438;28;20245;-81
2023/08/26 03:52:09;;;;;;;9.32;9.02;;;19.60;99.90;;;;;;5043372;28;20235;-82
2023/08/26 03:54:38;;;;;;;9.40;9.10;;;19.50;99.90;;;;;;5043120;28;20242;-81
2023/08/26 03:57:05;;;;;;;9.40;9.10;;;19.50;99.90;;;;;;5043188;28;20239;-81
2023/08/26 03:59:32;;;;;;;9.30;9.00;;;19.50;99.90;;;;;;5042276;28;20334;-81
2023/08/26 04:01:59;;;;;;;9.40;9.10;;;19.40;99.90;;;;;;5043957;28;20239;-81
2023/08/26 04:04:27;;;;;;;9.30;9.00;;;19.40;99.90;;;;;;5042746;28;20709;-82
2023/08/26 04:06:57;;;;;;;9.30;9.00;;;19.40;99.90;;;;;;5043810;28;20220;-81
2023/08/26 04:09:24;;;;;;;9.48;9.18;;;19.40;99.90;;;;;;5043151;28;20297;-81
2023/08/26 04:11:53;;;;;;;9.40;9.10;;;19.40;99.90;;;;;;5051607;28;20258;-81
2023/08/26 04:14:20;;;;;;;9.32;9.02;;;19.30;99.90;;;;;;5043551;28;20270;-82
2023/08/26 04:16:48;;;;;;;9.55;9.25;;;19.30;99.90;;;;;;5046077;28;20226;-81
2023/08/26 04:19:15;;;;;;;9.70;9.40;;;19.30;99.90;;;;;;5050891;28;20249;-81
2023/08/26 04:21:42;;;;;;;9.57;9.27;;;19.30;99.90;;;;;;5051640;28;20250;-81
2023/08/26 04:24:09;;;;;;;9.55;9.25;;;19.30;99.90;;;;;;5059673;28;20235;-81
2023/08/26 04:26:36;;;;;;;9.57;9.27;;;19.20;99.90;;;;;;5059812;28;20219;-82
2023/08/26 04:29:05;;;;;;;9.43;9.13;;;19.20;99.90;;;;;;5058635;28;20261;-81
2023/08/26 04:31:32;;;;;;;9.60;9.30;;;19.20;99.90;;;;;;5044957;28;20258;-81
2023/08/26 04:33:59;;;;;;;9.40;9.10;;;19.10;99.90;;;;;;5042186;28;20245;-82
2023/08/26 04:36:26;;;;;;;9.32;9.02;;;19.10;99.90;;;;;;5043021;28;20282;-81
2023/08/26 04:38:53;;;;;;;9.43;9.13;;;19.10;99.90;;;;;;5041897;28;20322;-81
2023/08/26 04:41:23;;;;;;;9.18;8.88;;;19.00;99.90;;;;;;5041715;28;20287;-81
2023/08/26 04:43:53;;;;;;;9.40;9.10;;;19.10;99.90;;;;;;5042642;28;20229;-81
2023/08/26 04:46:21;;;;;;;9.27;8.98;;;19.00;99.90;;;;;;5042100;28;20262;-82
2023/08/26 04:48:50;;;;;;;9.10;8.80;;;19.00;99.90;;;;;;5043281;28;20263;-81
2023/08/26 04:51:18;;;;;;;9.10;8.80;;;19.00;99.90;;;;;;5042537;28;20709;-82
2023/08/26 04:53:45;;;;;;;9.20;8.90;;;19.00;99.90;;;;;;5042674;28;20231;-81
2023/08/26 04:56:12;;;;;;;9.00;8.70;;;19.00;99.90;;;;;;5042947;28;20246;-81
2023/08/26 04:58:39;;;;;;;9.02;8.73;;;19.00;99.90;;;;;;5042257;28;20346;-80
2023/08/26 05:01:06;;;;;;;9.00;8.70;;;19.00;99.90;;;;;;5041394;28;20302;-79
2023/08/26 05:03:36;;;;;;;9.02;8.73;;;18.90;99.90;;;;;;5042018;28;20307;-80
2023/08/26 05:06:06;;;;;;;9.02;8.73;;;18.90;99.90;;;;;;5041947;28;20238;-81
2023/08/26 05:08:34;;;;;;;9.10;8.80;;;18.90;99.90;;;;;;5041565;28;20322;-80
2023/08/26 05:11:03;;;;;;;9.00;8.70;;;18.90;99.90;;;;;;5040888;28;20240;-80
2023/08/26 05:13:30;;;;;;;9.10;8.80;;;18.90;99.90;;;;;;5041969;28;20284;-80
2023/08/26 05:15:57;;;;;;;9.07;8.77;;;18.90;99.90;;;;;;5042173;28;20295;-79
2023/08/26 05:18:25;;;;;;;9.00;8.70;;;18.90;99.90;;;;;;5043283;28;20235;-81
2023/08/26 05:20:56;;;;;;;8.70;8.40;;;18.90;99.90;;;;;;5040634;28;20239;-81
2023/08/26 05:23:23;;;;;;;8.95;8.65;;;18.90;99.90;;;;;;5041029;28;20254;-81
2023/08/26 05:25:50;;;;;;;8.85;8.55;;;18.90;99.90;;;;;;5041361;28;20232;-81
2023/08/26 05:28:17;;;;;;;8.90;8.60;;;18.90;99.90;;;;;;5041610;28;20295;-81
2023/08/26 05:30:45;;;;;;;8.90;8.60;;;19.00;99.90;;;;;;5041619;28;20235;-81
2023/08/26 05:33:12;;;;;;;9.00;8.70;;;19.00;99.90;;;;;;5041373;28;20227;-82
2023/08/26 05:35:39;;;;;;;9.00;8.70;;;19.00;99.90;;;;;;5041717;28;20339;-81
2023/08/26 05:38:08;;;;;;;8.90;8.60;;;19.00;99.90;;;;;;5042389;28;20242;-80
2023/08/26 05:40:35;;;;;;;8.90;8.60;;;19.10;99.90;;;;;;5043449;28;20334;-81
2023/08/26 05:43:03;;;;;;;8.90;8.60;;;19.10;99.90;;;;;;5043678;28;20219;-81
2023/08/26 05:45:31;;;;;;;9.00;8.70;;;19.20;99.90;;;;;;5043197;28;20278;-81
2023/08/26 05:47:58;;;;;;;8.85;8.55;;;19.20;99.90;;;;;;5043542;28;20231;-81
2023/08/26 05:50:25;;;;;;;8.82;8.52;;;19.20;99.90;;;;;;5043809;28;20225;-81
2023/08/26 05:52:53;;;;;;;8.80;8.50;;;19.20;99.90;;;;;;5041792;28;20286;-81
2023/08/26 05:55:22;;;;;;;8.75;8.45;;;19.20;99.90;;;;;;5042481;28;20231;-81
2023/08/26 05:57:50;;;;;;;8.82;8.52;;;19.30;99.90;;;;;;5041401;28;20331;-82
2023/08/26 06:00:19;;;;;;;9.00;8.70;;;19.30;99.90;;;;;;5044706;28;20239;-81
2023/08/26 06:02:46;;;;;;;9.00;8.70;;;19.30;99.90;;;;;;5045749;28;20254;-81
2023/08/26 06:05:13;;;;;;;8.93;8.63;;;19.30;99.90;;;;;;5045776;28;20263;-81
2023/08/26 06:07:41;;;;;;;8.90;8.60;;;19.40;99.90;;;;;;5044936;28;20246;-81
2023/08/26 06:10:10;;;;;;;8.50;8.30;;;19.40;99.90;;;;;;5045676;28;20263;-81
2023/08/26 06:12:38;;;;;;;8.80;8.50;;;19.40;99.90;;;;;;5045091;28;20234;-81
2023/08/26 06:15:08;;;;;;;8.52;8.32;;;19.50;99.90;;;;;;5050566;28;20246;-81
2023/08/26 06:17:35;;;;;;;8.50;8.30;;;19.50;99.90;;;;;;5043780;28;20231;-81
2023/08/26 06:20:03;;;;;;;8.48;8.27;;;19.60;99.90;;;;;;5043601;28;20297;-81
2023/08/26 06:22:30;;;;;;;8.60;8.38;;;19.70;99.90;;;;;;5044020;28;20227;-82
2023/08/26 06:24:59;;;;;;;8.55;8.35;;;19.70;99.90;;;;;;5044945;28;20238;-81
2023/08/26 06:27:28;;;;;;;8.50;8.30;;;19.70;99.90;;;;;;5045260;28;20235;-81
2023/08/26 06:30:02;;;;;;;8.60;8.40;;;19.80;99.90;;;;;;5045882;28;20231;-81
2023/08/26 06:32:29;;;;;;;8.60;8.38;;;19.90;99.90;;;;;;5044586;28;20309;-82
2023/08/26 06:34:56;;;;;;;8.80;8.50;;;20.00;99.90;;;;;;5044524;28;20259;-81
2023/08/26 06:37:24;;;;;;;8.70;8.50;;;20.00;99.90;;;;;;5050346;28;20232;-82
2023/08/26 06:39:53;;;;;;;8.85;8.57;;;20.10;99.90;;;;;;5046300;28;20239;-82
2023/08/26 06:42:22;;;;;;;8.80;8.50;;;20.10;99.90;;;;;;5046740;28;20251;-82
2023/08/26 06:44:50;;;;;;;8.68;8.48;;;20.10;99.90;;;;;;5045783;28;20234;-80
2023/08/26 06:47:18;;;;;;;8.80;8.52;;;20.20;99.90;;;;;;5045728;28;20235;-81
2023/08/26 06:49:45;;;;;;;8.40;8.20;;;20.10;99.90;;;;;;5045020;28;20351;-81
2023/08/26 06:52:12;;;;;;;8.60;8.40;;;20.10;99.90;;;;;;5044517;28;20318;-82
2023/08/26 06:54:40;;;;;;;8.40;8.20;;;20.10;99.90;;;;;;5044340;28;20223;-81
2023/08/26 06:57:07;;;;;;;8.50;8.30;;;20.10;99.90;;;;;;5043786;28;20236;-80
2023/08/26 06:59:35;;;;;;;8.57;8.38;;;20.20;99.90;;;;;;5043414;28;20306;-80
2023/08/26 07:02:02;;;;;;;8.38;8.18;;;20.10;99.90;;;;;;5044503;28;20240;-80
2023/08/26 07:04:31;;;;;;;8.70;8.50;;;20.20;99.90;;;;;;5044160;28;20282;-81
2023/08/26 07:07:03;;;;;;;8.40;8.20;;;20.20;99.90;;;;;;5044736;28;20258;-82
2023/08/26 07:09:32;;;;;;;8.32;8.13;;;20.20;99.90;;;;;;5044581;28;20240;-82
2023/08/26 07:11:59;;;;;;;8.40;8.20;;;20.30;99.90;;;;;;5049941;28;20714;-82
2023/08/26 07:17:09;;;;;;;8.50;8.30;;;20.40;99.90;;;;;;5048016;28;20220;-82
2023/08/26 07:19:41;;;;;;;8.60;8.40;;;20.60;99.90;;;;;;5046768;28;20241;-82
2023/08/26 07:22:08;;;;;;;8.73;8.52;;;20.60;99.90;;;;;;5045035;28;20235;-82
2023/08/26 07:24:35;;;;;;;8.68;8.48;;;20.60;99.90;;;;;;5043813;28;20222;-79
2023/08/26 07:27:03;;;;;;;8.77;8.57;;;20.70;99.90;;;;;;5042697;28;20278;-80
2023/08/26 07:29:33;;;;;;;8.88;8.60;;;20.70;99.90;;;;;;5041583;28;20303;-80
2023/08/26 07:32:00;;;;;;;9.30;9.00;;;20.80;99.90;;;;;;5042097;28;20227;-80
2023/08/26 07:34:27;;;;;;;9.10;8.80;;;20.80;99.90;;;;;;5042963;28;20227;-80
2023/08/26 07:36:55;;;;;;;9.02;8.73;;;20.90;99.90;;;;;;5043068;28;20276;-80
2023/08/26 07:39:24;;;;;;;9.20;8.90;;;21.10;99.90;;;;;;5042282;28;20263;-79
2023/08/26 07:41:51;;;;;;;9.02;8.73;;;21.20;99.90;;;;;;5045246;28;20259;-80
2023/08/26 07:44:18;;;;;;;9.30;9.00;;;21.30;99.90;;;;;;5051629;28;20234;-79
2023/08/26 07:46:45;;;;;;;9.40;9.10;;;21.40;99.90;;;;;;5056700;28;20234;-79
2023/08/26 07:49:12;;;;;;;9.68;9.38;;;21.50;99.90;;;;;;5056239;28;20235;-80
2023/08/26 07:51:39;;;;;;;10.18;9.88;;;21.60;99.90;;;;;;5056326;28;20258;-80
2023/08/26 07:54:08;;;;;;;9.75;9.45;;;21.70;99.90;;;;;;5056786;28;20212;-79
2023/08/26 07:56:35;;;;;;;10.05;9.75;;;21.70;99.90;;;;;;5057140;28;20232;-80
2023/08/26 07:59:02;;;;;;;9.90;9.60;;;21.80;99.90;;;;;;5056347;28;20262;-80
2023/08/26 08:01:29;;;;;;;10.20;9.90;;;21.90;99.90;;;;;;5056602;28;20231;-80
2023/08/26 08:03:56;;;;;;;10.38;10.07;;;21.90;99.90;;;;;;5056128;28;20238;-80
2023/08/26 08:06:23;;;;;;;10.18;9.88;;;22.00;99.90;;;;;;5056963;28;20299;-79
2023/08/26 08:08:51;;;;;;;10.20;9.90;;;22.00;99.90;;;;;;5058103;28;20235;-81
2023/08/26 08:11:20;;;;;;;10.50;10.20;;;21.90;99.90;;;;;;5052250;28;20294;-80
2023/08/26 08:13:48;;;;;;;10.20;9.90;;;21.90;99.90;;;;;;5042653;28;20218;-80
2023/08/26 08:16:15;;;;;;;10.48;10.18;;;21.90;99.90;;;;;;5054406;28;20244;-80
2023/08/26 08:18:42;;;;;;;10.35;10.05;;;21.90;99.90;;;;;;5048946;28;20294;-81
2023/08/26 08:21:10;;;;;;;10.57;10.27;;;22.00;99.90;;;;;;5041624;28;20266;-81
2023/08/26 08:23:38;;;;;;;10.57;10.27;;;22.10;99.90;;;;;;5040519;28;20259;-80
2023/08/26 08:26:05;;;;;;;10.73;10.43;;;22.10;99.90;;;;;;5043113;28;20235;-81
2023/08/26 08:28:34;;;;;;;10.63;10.32;;;22.30;99.90;;;;;;5051531;28;20615;-80
2023/08/26 08:31:01;;;;;;;10.70;10.40;;;22.40;99.90;;;;;;5038669;28;20262;-79
2023/08/26 08:33:28;;;;;;;10.90;10.60;;;22.50;99.90;;;;;;5038840;28;20236;-79
2023/08/26 08:35:55;;;;;;;10.90;10.60;;;22.60;99.90;;;;;;5048187;28;20270;-80
2023/08/26 08:38:22;;;;;;;10.70;10.40;;;22.70;99.90;;;;;;5039874;28;20259;-79
2023/08/26 08:40:49;;;;;;;11.10;10.80;;;22.80;99.90;;;;;;5039998;28;20227;-80
2023/08/26 08:43:19;;;;;;;11.13;10.82;;;23.00;99.90;;;;;;5047617;28;20301;-80
2023/08/26 08:45:49;;;;;;;11.00;10.70;;;23.00;99.90;;;;;;5040239;28;20242;-80
2023/08/26 08:48:17;;;;;;;11.20;10.90;;;23.10;99.90;;;;;;5039658;28;20307;-79
2023/08/26 08:50:45;;;;;;;10.88;10.57;;;23.00;99.90;;;;;;5039939;28;20224;-80
2023/08/26 08:53:14;;;;;;;11.15;10.82;;;22.90;99.90;;;;;;5039011;28;20335;-80
2023/08/26 08:55:41;;;;;;;10.80;10.50;;;22.80;99.90;;;;;;5031387;28;20231;-79
2023/08/26 08:58:10;;;;;;;10.80;10.50;;;22.90;99.90;;;;;;5034929;28;20232;-78
2023/08/26 09:00:38;;;;;;;10.98;10.68;;;23.20;99.90;;;;;;5038728;28;20231;-79
2023/08/26 09:03:09;;;;;;;11.20;10.90;;;23.50;99.90;;;;;;5039294;28;20223;-79
2023/08/26 09:05:36;;;;;;;10.65;10.35;;;23.80;99.90;;;;;;5040222;28;20223;-78
2023/08/26 09:08:06;;;;;;;11.10;10.80;;;24.00;99.90;;;;;;5041954;28;20713;-79
2023/08/26 09:10:34;;;;;;;11.00;10.70;;;24.30;99.90;;;;;;5040546;28;20275;-81
2023/08/26 09:13:05;;;;;;;10.82;10.52;;;24.40;99.90;;;;;;5039165;28;20295;-79
2023/08/26 09:15:32;;;;;;;11.00;10.70;;;24.60;99.90;;;;;;5040085;28;20231;-79
2023/08/26 09:17:59;;;;;;;11.00;10.70;;;25.00;99.90;;;;;;5039737;28;20235;-79
2023/08/26 09:20:29;;;;;;;10.82;10.52;;;25.30;99.90;;;;;;5040163;28;20219;-80
2023/08/26 09:23:04;;;;;;;11.00;10.70;;;25.70;99.90;;;;;;5039556;28;20234;-79
2023/08/26 09:25:32;;;;;;;10.85;10.55;;;26.00;99.90;;;;;;5038722;28;20298;-78
2023/08/26 09:28:02;;;;;;;10.70;10.40;;;26.10;99.90;;;;;;5036422;28;20263;-78
2023/08/26 09:30:29;;;;;;;10.77;10.48;;;26.30;99.90;;;;;;5036670;28;20660;-77
2023/08/26 09:32:58;;;;;;;10.63;10.32;;;26.50;99.90;;;;;;5036303;28;20246;-78
2023/08/26 09:35:27;;;;;;;10.73;10.43;;;26.90;99.90;;;;;;5037513;28;20231;-77
2023/08/26 09:37:59;;;;;;;10.73;10.43;;;26.90;99.90;;;;;;5039582;28;20223;-78
2023/08/26 09:40:26;;;;;;;10.65;10.35;;;26.70;99.90;;;;;;5036987;28;20235;-78
2023/08/26 09:42:54;;;;;;;10.80;10.50;;;26.50;99.90;;;;;;5037849;28;20223;-77
2023/08/26 09:45:21;;;;;;;10.80;10.50;;;26.10;99.90;;;;;;5036206;28;20235;-77
2023/08/26 09:47:50;;;;;;;10.60;10.30;;;25.70;99.90;;;;;;5036156;28;20231;-80
2023/08/26 09:50:18;;;;;;;10.65;10.35;;;25.40;99.90;;;;;;5040094;28;20239;-81
2023/08/26 09:52:48;;;;;;;10.50;10.20;;;25.40;99.90;;;;;;5039731;28;20258;-79
2023/08/26 09:55:15;;;;;;;10.35;10.05;;;25.50;99.90;;;;;;5038540;28;20231;-79
2023/08/26 09:57:44;;;;;;;10.50;10.20;;;25.50;99.90;;;;;;5037885;28;20249;-79
2023/08/26 10:00:12;;;;;;;10.40;10.10;;;25.30;99.90;;;;;;5042671;28;20227;-81
2023/08/26 10:02:48;;;;;;;10.63;10.32;;;25.10;99.90;;;;;;5054704;28;20220;-81
2023/08/26 10:05:19;;;;;;;10.40;10.10;;;24.80;99.90;;;;;;5054183;28;20289;-78
2023/08/26 10:07:49;;;;;;;10.65;10.35;;;25.10;99.90;;;;;;5050482;28;20244;-78
2023/08/26 10:10:28;;;;;;;10.25;9.95;;;25.40;99.90;;;;;;5052358;28;20200;-78
2023/08/26 10:13:01;;;;;;;10.65;10.35;;;25.60;99.90;;;;;;5056536;28;20274;-78
2023/08/26 10:15:32;;;;;;;10.43;10.13;;;25.90;99.90;;;;;;5044896;28;20235;-79
2023/08/26 10:18:06;;;;;;;10.40;10.10;;;26.40;99.90;;;;;;5042680;28;20371;-78
2023/08/26 10:20:34;;;;;;;10.40;10.10;;;26.80;99.90;;;;;;5040552;28;20224;-80
2023/08/26 10:23:03;;;;;;;10.25;9.95;;;27.20;99.90;;;;;;5038392;28;20236;-79
2023/08/26 10:25:32;;;;;;;10.48;10.18;;;27.40;99.90;;;;;;5038220;28;20234;-79
2023/08/26 10:28:00;;;;;;;10.63;10.32;;;27.50;99.90;;;;;;5037138;28;20259;-80
2023/08/26 10:30:27;;;;;;;10.50;10.20;;;27.70;99.90;;;;;;5040038;28;20224;-81
2023/08/26 10:33:04;;;;;;;10.45;10.15;;;27.80;99.90;;;;;;5041911;28;20232;-81
2023/08/26 10:35:32;;;;;;;10.48;10.18;;;27.70;99.90;;;;;;5042348;28;20236;-81
2023/08/26 10:38:14;;;;;;;10.65;10.35;;;27.40;99.90;;;;;;5042538;28;20231;-80
2023/08/26 10:40:41;;;;;;;10.50;10.20;;;27.10;99.90;;;;;;5042031;28;20290;-80
2023/08/26 10:43:11;;;;;;;10.60;10.30;;;27.00;99.90;;;;;;5041916;28;20223;-81
2023/08/26 10:45:50;;;;;;;10.60;10.30;;;26.90;99.90;;;;;;5044073;28;20242;-81
2023/08/26 10:48:20;;;;;;;10.55;10.25;;;26.70;99.90;;;;;;5040236;28;20277;-81
2023/08/26 10:50:59;;;;;;;10.57;10.27;;;26.70;99.90;;;;;;5045583;28;20251;-83
2023/08/26 10:53:29;;;;;;;10.40;10.10;;;26.50;99.90;;;;;;5047031;28;20220;-81
2023/08/26 10:56:14;;;;;;;10.20;9.90;;;26.80;99.90;;;;;;5045754;28;20232;-78
2023/08/26 10:59:02;;;;;;;10.40;10.10;;;27.30;99.90;;;;;;5076339;22;20226;-89
2023/08/26 11:01:49;;;;;;;10.55;10.25;;;27.80;99.90;;;;;;5083322;28;20285;-90
2023/08/26 11:04:27;;;;;;;10.43;10.13;;;28.20;99.90;;;;;;5083152;28;20225;-90
2023/08/26 11:06:56;;;;;;;10.50;10.20;;;28.40;99.90;;;;;;5081435;28;20236;-88
2023/08/26 11:15:08;;;;;;;10.60;10.30;;;27.90;99.90;;;;;;5083239;28;20218;-86
2023/08/26 11:17:37;;;;;;;10.48;10.18;;;27.90;99.90;;;;;;5083214;28;20230;-87
2023/08/26 11:20:10;;;;;;;10.32;10.02;;;27.70;99.90;;;;;;5082650;28;20249;-89
2023/08/26 11:25:26;;;;;;;10.40;10.10;;;27.30;99.90;;;;;;5083089;28;20213;-88
2023/08/26 11:27:54;;;;;;;10.30;10.00;;;27.40;99.90;;;;;;5082392;28;20234;-88
2023/08/26 11:30:23;;;;;;;10.40;10.10;;;27.20;99.90;;;;;;5082448;28;20226;-88
2023/08/26 11:32:52;;;;;;;10.40;10.10;;;27.00;99.90;;;;;;5081920;28;20334;-88
2023/08/26 11:35:32;;;;;;;10.40;10.10;;;26.90;99.90;;;;;;5087779;28;20237;-87
2023/08/26 11:37:59;;;;;;;10.30;10.00;;;27.10;99.90;;;;;;5085687;28;20281;-86
2023/08/26 11:43:17;;;;;;;10.30;10.00;;;27.60;99.90;;;;;;5082662;28;20226;-87
2023/08/26 11:45:47;;;;;;;10.20;9.90;;;27.90;99.90;;;;;;5081845;28;20230;-85
2023/08/26 11:48:15;;;;;;;10.35;10.05;;;27.90;99.90;;;;;;5081492;28;20256;-84
2023/08/26 11:50:46;;;;;;;10.20;9.90;;;27.90;99.90;;;;;;5072446;28;20241;-84
2023/08/26 11:53:25;;;;;;;10.43;10.13;;;27.90;99.90;;;;;;5081103;28;20278;-85
2023/08/26 11:55:56;;;;;;;10.18;9.88;;;27.80;99.90;;;;;;5074451;28;20229;-86
2023/08/26 11:58:23;;;;;;;10.30;10.00;;;27.60;99.90;;;;;;5080927;28;20298;-85
2023/08/26 12:00:54;;;;;;;10.00;9.70;;;27.60;99.90;;;;;;5082335;28;20300;-86
2023/08/26 12:03:23;;;;;;;10.10;9.80;;;27.50;99.90;;;;;;5081884;28;20230;-85
2023/08/26 12:05:54;;;;;;;10.05;9.75;;;27.40;99.90;;;;;;5084848;28;20230;-86
2023/08/26 12:08:23;;;;;;;10.10;9.80;;;27.70;99.90;;;;;;5093440;28;20241;-85
2023/08/26 12:10:59;;;;;;;10.30;10.00;;;28.00;99.90;;;;;;5081674;28;20226;-87
2023/08/26 12:13:39;;;;;;;10.20;9.90;;;28.10;99.90;;;;;;5081641;28;20243;-90
2023/08/26 12:16:09;;;;;;;10.40;10.10;;;28.20;99.90;;;;;;5081399;28;20245;-87
2023/08/26 12:18:36;;;;;;;10.32;10.02;;;28.70;99.90;;;;;;5080988;28;20724;-87
2023/08/26 12:21:24;;;;;;;10.80;10.50;;;28.90;99.90;;;;;;5081407;28;20452;-90
2023/08/26 12:23:53;;;;;;;10.35;10.05;;;28.90;99.90;;;;;;5074940;28;20234;-90
2023/08/26 12:29:29;;;;;;;10.40;10.10;;;28.20;99.90;;;;;;5097709;27;1447703;-88
2023/08/26 12:31:57;;;;;;;10.27;9.98;;;28.20;99.90;;;;;;5118354;28;20233;-87
2023/08/26 12:34:27;;;;;;;10.50;10.20;;;28.00;99.90;;;;;;5118925;28;20247;-86
2023/08/26 12:36:56;;;;;;;9.98;9.68;;;27.70;99.90;;;;;;5118182;28;20232;-86
2023/08/26 12:39:25;;;;;;;10.20;9.90;;;27.60;99.90;;;;;;5118347;28;20244;-85
2023/08/26 12:41:55;;;;;;;10.10;9.80;;;27.30;99.90;;;;;;5118745;28;20233;-88
2023/08/26 12:44:26;;;;;;;10.10;9.80;;;27.00;99.90;;;;;;5118004;28;20237;-85
2023/08/26 12:46:53;;;;;;;10.25;9.95;;;26.90;99.90;;;;;;5125133;28;20247;-85
2023/08/26 12:49:34;;;;;;;10.23;9.93;;;26.80;99.90;;;;;;5136867;27;20243;-86
2023/08/26 12:52:02;;;;;;;10.35;10.05;;;26.80;99.90;;;;;;5137138;27;20204;-87
2023/08/26 12:54:30;;;;;;;10.30;10.00;;;27.00;99.90;;;;;;5136882;27;20276;-85
2023/08/26 12:57:09;;;;;;;10.05;9.75;;;27.30;99.90;;;;;;5125439;28;20233;-85
2023/08/26 13:02:25;;;;;;;10.20;9.90;;;27.50;99.90;;;;;;5117952;28;20228;-86
2023/08/26 13:05:04;;;;;;;10.43;10.13;;;27.50;99.90;;;;;;5117865;28;20247;-85
2023/08/26 13:07:32;;;;;;;10.30;10.00;;;27.40;99.90;;;;;;5110942;28;20257;-85
2023/08/26 13:10:02;;;;;;;10.18;9.88;;;27.30;99.90;;;;;;5097054;28;20267;-86
2023/08/26 13:12:42;;;;;;;10.20;9.90;;;27.20;99.90;;;;;;5097633;28;20235;-87
2023/08/26 13:18:08;;;;;;;10.00;9.70;;;26.90;99.90;;;;;;4984118;27;6062558;-87
2023/08/26 13:20:52;;;;;;;10.00;9.70;;;27.10;99.90;;;;;;5159471;27;20219;-87